sensor_id;sensor_type;location;lat;lon;timestamp;P1;durP1;ratioP1;P2;durP2;ratioP2
51854;SDS011;37895;53.240;6.572;2023-10-09T00:02:13;11.10;;;5.55;;
51854;SDS011;37895;53.240;6.572;2023-10-09T00:04:39;7.38;;;4.68;;
51854;SDS011;37895;53.240;6.572;2023-10-09T00:07:06;9.82;;;5.35;;
51854;SDS011;37895;53.240;6.572;2023-10-09T00:09:33;10.93;;;5.30;;
51854;SDS011;37895;53.240;6.572;2023-10-09T00:12:11;8.55;;;5.28;;
51854;SDS011;37895;53.240;6.572;2023-10-09T00:14:41;8.25;;;5.50;;
51854;SDS011;37895;53.240;6.572;2023-10-09T00:17:12;10.63;;;5.53;;
51854;SDS011;37895;53.240;6.572;2023-10-09T00:19:39;9.00;;;4.82;;
51854;SDS011;37895;53.240;6.572;2023-10-09T00:22:07;9.98;;;4.93;;
51854;SDS011;37895;53.240;6.572;2023-10-09T00:24:36;10.77;;;5.65;;
51854;SDS011;37895;53.240;6.572;2023-10-09T00:27:10;12.02;;;5.70;;
51854;SDS011;37895;53.240;6.572;2023-10-09T00:29:43;11.50;;;6.40;;
51854;SDS011;37895;53.240;6.572;2023-10-09T00:32:14;10.07;;;5.60;;
51854;SDS011;37895;53.240;6.572;2023-10-09T00:34:55;12.60;;;5.90;;
51854;SDS011;37895;53.240;6.572;2023-10-09T00:37:24;14.70;;;7.07;;
51854;SDS011;37895;53.240;6.572;2023-10-09T00:39:52;14.68;;;7.18;;
51854;SDS011;37895;53.240;6.572;2023-10-09T00:42:25;10.15;;;6.63;;
51854;SDS011;37895;53.240;6.572;2023-10-09T00:44:55;17.98;;;7.45;;
51854;SDS011;37895;53.240;6.572;2023-10-09T00:47:22;12.52;;;7.03;;
51854;SDS011;37895;53.240;6.572;2023-10-09T00:49:52;11.88;;;7.10;;
51854;SDS011;37895;53.240;6.572;2023-10-09T00:52:24;12.63;;;7.95;;
51854;SDS011;37895;53.240;6.572;2023-10-09T00:55:20;15.23;;;8.30;;
51854;SDS011;37895;53.240;6.572;2023-10-09T00:57:52;12.35;;;8.02;;
51854;SDS011;37895;53.240;6.572;2023-10-09T01:00:24;14.98;;;7.38;;
51854;SDS011;37895;53.240;6.572;2023-10-09T01:03:01;14.70;;;8.68;;
51854;SDS011;37895;53.240;6.572;2023-10-09T01:05:57;15.57;;;8.30;;
51854;SDS011;37895;53.240;6.572;2023-10-09T01:08:28;13.80;;;9.05;;
51854;SDS011;37895;53.240;6.572;2023-10-09T01:13:38;15.27;;;9.02;;
51854;SDS011;37895;53.240;6.572;2023-10-09T01:16:25;15.57;;;10.02;;
51854;SDS011;37895;53.240;6.572;2023-10-09T01:18:52;15.75;;;9.35;;
51854;SDS011;37895;53.240;6.572;2023-10-09T01:21:21;17.92;;;9.63;;
51854;SDS011;37895;53.240;6.572;2023-10-09T01:23:50;21.85;;;11.02;;
51854;SDS011;37895;53.240;6.572;2023-10-09T01:26:35;18.50;;;10.75;;
51854;SDS011;37895;53.240;6.572;2023-10-09T01:31:44;20.70;;;11.10;;
51854;SDS011;37895;53.240;6.572;2023-10-09T01:37:10;26.35;;;12.93;;
51854;SDS011;37895;53.240;6.572;2023-10-09T01:39:54;23.63;;;13.23;;
51854;SDS011;37895;53.240;6.572;2023-10-09T01:42:39;21.55;;;12.82;;
51854;SDS011;37895;53.240;6.572;2023-10-09T01:45:13;24.35;;;14.05;;
51854;SDS011;37895;53.240;6.572;2023-10-09T01:47:45;27.75;;;14.15;;
51854;SDS011;37895;53.240;6.572;2023-10-09T01:50:16;27.45;;;14.13;;
51854;SDS011;37895;53.240;6.572;2023-10-09T01:53:00;25.13;;;14.73;;
51854;SDS011;37895;53.240;6.572;2023-10-09T01:55:31;26.67;;;15.20;;
51854;SDS011;37895;53.240;6.572;2023-10-09T01:58:05;27.90;;;16.38;;
51854;SDS011;37895;53.240;6.572;2023-10-09T02:00:41;27.95;;;16.65;;
51854;SDS011;37895;53.240;6.572;2023-10-09T02:03:08;27.38;;;15.90;;
51854;SDS011;37895;53.240;6.572;2023-10-09T02:05:37;27.52;;;16.58;;
51854;SDS011;37895;53.240;6.572;2023-10-09T02:08:03;35.67;;;17.70;;
51854;SDS011;37895;53.240;6.572;2023-10-09T02:10:31;33.83;;;18.67;;
51854;SDS011;37895;53.240;6.572;2023-10-09T02:12:57;30.60;;;18.27;;
51854;SDS011;37895;53.240;6.572;2023-10-09T02:15:37;28.02;;;18.20;;
51854;SDS011;37895;53.240;6.572;2023-10-09T02:18:09;28.75;;;17.77;;
51854;SDS011;37895;53.240;6.572;2023-10-09T02:23:37;29.33;;;18.30;;
51854;SDS011;37895;53.240;6.572;2023-10-09T02:26:10;31.25;;;18.25;;
51854;SDS011;37895;53.240;6.572;2023-10-09T02:28:57;31.67;;;19.55;;
51854;SDS011;37895;53.240;6.572;2023-10-09T02:31:29;34.72;;;20.20;;
51854;SDS011;37895;53.240;6.572;2023-10-09T02:34:05;32.15;;;20.02;;
51854;SDS011;37895;53.240;6.572;2023-10-09T02:36:35;37.45;;;20.83;;
51854;SDS011;37895;53.240;6.572;2023-10-09T02:39:24;35.03;;;21.23;;
51854;SDS011;37895;53.240;6.572;2023-10-09T02:41:54;33.00;;;20.13;;
51854;SDS011;37895;53.240;6.572;2023-10-09T02:44:27;41.05;;;22.00;;
51854;SDS011;37895;53.240;6.572;2023-10-09T02:47:04;35.83;;;21.73;;
51854;SDS011;37895;53.240;6.572;2023-10-09T02:49:36;35.78;;;21.95;;
51854;SDS011;37895;53.240;6.572;2023-10-09T02:52:05;37.55;;;23.17;;
51854;SDS011;37895;53.240;6.572;2023-10-09T02:54:32;33.80;;;22.23;;
51854;SDS011;37895;53.240;6.572;2023-10-09T02:57:06;39.03;;;22.48;;
51854;SDS011;37895;53.240;6.572;2023-10-09T03:02:06;42.75;;;25.13;;
51854;SDS011;37895;53.240;6.572;2023-10-09T03:04:32;40.83;;;24.10;;
51854;SDS011;37895;53.240;6.572;2023-10-09T03:06:58;38.83;;;24.75;;
51854;SDS011;37895;53.240;6.572;2023-10-09T03:09:25;41.83;;;24.83;;
51854;SDS011;37895;53.240;6.572;2023-10-09T03:11:57;40.45;;;25.70;;
51854;SDS011;37895;53.240;6.572;2023-10-09T03:14:43;37.95;;;25.45;;
51854;SDS011;37895;53.240;6.572;2023-10-09T03:17:09;42.08;;;27.05;;
51854;SDS011;37895;53.240;6.572;2023-10-09T03:19:37;42.15;;;26.17;;
51854;SDS011;37895;53.240;6.572;2023-10-09T03:22:04;43.17;;;27.42;;
51854;SDS011;37895;53.240;6.572;2023-10-09T03:24:34;44.15;;;27.63;;
51854;SDS011;37895;53.240;6.572;2023-10-09T03:27:00;40.65;;;25.30;;
51854;SDS011;37895;53.240;6.572;2023-10-09T03:29:25;43.88;;;27.70;;
51854;SDS011;37895;53.240;6.572;2023-10-09T03:31:52;47.17;;;27.45;;
51854;SDS011;37895;53.240;6.572;2023-10-09T03:34:20;43.67;;;28.27;;
51854;SDS011;37895;53.240;6.572;2023-10-09T03:36:46;46.72;;;28.17;;
51854;SDS011;37895;53.240;6.572;2023-10-09T03:39:13;44.38;;;27.75;;
51854;SDS011;37895;53.240;6.572;2023-10-09T03:41:57;46.30;;;28.52;;
51854;SDS011;37895;53.240;6.572;2023-10-09T03:44:23;47.38;;;29.42;;
51854;SDS011;37895;53.240;6.572;2023-10-09T03:46:53;47.15;;;29.83;;
51854;SDS011;37895;53.240;6.572;2023-10-09T03:49:19;52.30;;;32.85;;
51854;SDS011;37895;53.240;6.572;2023-10-09T03:51:48;54.63;;;33.38;;
51854;SDS011;37895;53.240;6.572;2023-10-09T03:54:14;54.85;;;33.85;;
51854;SDS011;37895;53.240;6.572;2023-10-09T03:56:40;56.80;;;33.13;;
51854;SDS011;37895;53.240;6.572;2023-10-09T03:59:06;57.00;;;32.65;;
51854;SDS011;37895;53.240;6.572;2023-10-09T04:01:35;46.78;;;30.27;;
51854;SDS011;37895;53.240;6.572;2023-10-09T04:04:04;54.13;;;32.90;;
51854;SDS011;37895;53.240;6.572;2023-10-09T04:06:35;49.15;;;30.42;;
51854;SDS011;37895;53.240;6.572;2023-10-09T04:09:11;51.15;;;29.48;;
51854;SDS011;37895;53.240;6.572;2023-10-09T04:11:43;55.80;;;31.75;;
51854;SDS011;37895;53.240;6.572;2023-10-09T04:14:11;48.17;;;30.27;;
51854;SDS011;37895;53.240;6.572;2023-10-09T04:16:49;52.63;;;31.17;;
51854;SDS011;37895;53.240;6.572;2023-10-09T04:19:28;49.70;;;29.75;;
51854;SDS011;37895;53.240;6.572;2023-10-09T04:21:54;46.28;;;28.08;;
51854;SDS011;37895;53.240;6.572;2023-10-09T04:24:23;51.17;;;28.45;;
51854;SDS011;37895;53.240;6.572;2023-10-09T04:26:49;43.83;;;28.38;;
51854;SDS011;37895;53.240;6.572;2023-10-09T04:29:21;48.35;;;28.65;;
51854;SDS011;37895;53.240;6.572;2023-10-09T04:32:02;44.58;;;28.05;;
51854;SDS011;37895;53.240;6.572;2023-10-09T04:34:32;46.30;;;28.08;;
51854;SDS011;37895;53.240;6.572;2023-10-09T04:37:03;45.08;;;27.48;;
51854;SDS011;37895;53.240;6.572;2023-10-09T04:40:04;44.88;;;28.63;;
51854;SDS011;37895;53.240;6.572;2023-10-09T04:42:37;43.45;;;26.80;;
51854;SDS011;37895;53.240;6.572;2023-10-09T04:47:32;49.28;;;28.20;;
51854;SDS011;37895;53.240;6.572;2023-10-09T04:52:40;49.13;;;27.35;;
51854;SDS011;37895;53.240;6.572;2023-10-09T04:55:07;46.65;;;27.95;;
51854;SDS011;37895;53.240;6.572;2023-10-09T05:02:52;42.05;;;26.83;;
51854;SDS011;37895;53.240;6.572;2023-10-09T05:05:26;36.92;;;24.40;;
51854;SDS011;37895;53.240;6.572;2023-10-09T05:11:03;48.53;;;27.35;;
51854;SDS011;37895;53.240;6.572;2023-10-09T05:13:29;48.72;;;27.10;;
51854;SDS011;37895;53.240;6.572;2023-10-09T05:16:12;41.05;;;24.92;;
51854;SDS011;37895;53.240;6.572;2023-10-09T05:18:52;44.33;;;25.23;;
51854;SDS011;37895;53.240;6.572;2023-10-09T05:21:43;39.72;;;22.77;;
51854;SDS011;37895;53.240;6.572;2023-10-09T05:24:08;39.33;;;23.13;;
51854;SDS011;37895;53.240;6.572;2023-10-09T05:26:37;40.38;;;24.23;;
51854;SDS011;37895;53.240;6.572;2023-10-09T05:29:17;34.53;;;23.10;;
51854;SDS011;37895;53.240;6.572;2023-10-09T05:32:05;32.58;;;21.38;;
51854;SDS011;37895;53.240;6.572;2023-10-09T05:34:38;41.90;;;23.85;;
51854;SDS011;37895;53.240;6.572;2023-10-09T05:37:23;31.95;;;20.00;;
51854;SDS011;37895;53.240;6.572;2023-10-09T05:39:57;39.63;;;21.55;;
51854;SDS011;37895;53.240;6.572;2023-10-09T05:42:32;38.90;;;21.30;;
51854;SDS011;37895;53.240;6.572;2023-10-09T05:45:08;31.08;;;19.85;;
51854;SDS011;37895;53.240;6.572;2023-10-09T05:47:42;37.67;;;20.42;;
51854;SDS011;37895;53.240;6.572;2023-10-09T05:50:43;32.03;;;19.27;;
51854;SDS011;37895;53.240;6.572;2023-10-09T05:53:21;30.90;;;18.08;;
51854;SDS011;37895;53.240;6.572;2023-10-09T05:56:05;53.78;;;22.40;;
51854;SDS011;37895;53.240;6.572;2023-10-09T05:58:49;33.58;;;18.50;;
51854;SDS011;37895;53.240;6.572;2023-10-09T06:01:33;34.20;;;17.98;;
51854;SDS011;37895;53.240;6.572;2023-10-09T06:04:18;29.20;;;17.75;;
51854;SDS011;37895;53.240;6.572;2023-10-09T06:06:45;32.38;;;16.70;;
51854;SDS011;37895;53.240;6.572;2023-10-09T06:09:12;30.95;;;16.35;;
51854;SDS011;37895;53.240;6.572;2023-10-09T06:11:38;26.52;;;16.25;;
51854;SDS011;37895;53.240;6.572;2023-10-09T06:14:28;24.33;;;14.52;;
51854;SDS011;37895;53.240;6.572;2023-10-09T06:16:54;34.17;;;16.27;;
51854;SDS011;37895;53.240;6.572;2023-10-09T06:19:22;30.40;;;16.30;;
51854;SDS011;37895;53.240;6.572;2023-10-09T06:21:56;26.42;;;14.98;;
51854;SDS011;37895;53.240;6.572;2023-10-09T06:24:42;27.00;;;14.63;;
51854;SDS011;37895;53.240;6.572;2023-10-09T06:27:11;26.98;;;15.55;;
51854;SDS011;37895;53.240;6.572;2023-10-09T06:29:38;29.60;;;15.35;;
51854;SDS011;37895;53.240;6.572;2023-10-09T06:32:13;27.05;;;14.55;;
51854;SDS011;37895;53.240;6.572;2023-10-09T06:34:56;27.17;;;14.77;;
51854;SDS011;37895;53.240;6.572;2023-10-09T06:37:41;30.80;;;15.25;;
51854;SDS011;37895;53.240;6.572;2023-10-09T06:40:47;25.42;;;14.30;;
51854;SDS011;37895;53.240;6.572;2023-10-09T06:43:31;29.00;;;14.00;;
51854;SDS011;37895;53.240;6.572;2023-10-09T06:46:01;23.15;;;13.98;;
51854;SDS011;37895;53.240;6.572;2023-10-09T06:48:46;25.45;;;14.75;;
51854;SDS011;37895;53.240;6.572;2023-10-09T06:51:21;33.78;;;15.38;;
51854;SDS011;37895;53.240;6.572;2023-10-09T06:53:50;28.77;;;13.35;;
51854;SDS011;37895;53.240;6.572;2023-10-09T06:56:19;27.17;;;13.57;;
51854;SDS011;37895;53.240;6.572;2023-10-09T06:59:08;25.30;;;14.35;;
51854;SDS011;37895;53.240;6.572;2023-10-09T07:01:50;26.48;;;13.50;;
51854;SDS011;37895;53.240;6.572;2023-10-09T07:04:36;29.02;;;14.63;;
51854;SDS011;37895;53.240;6.572;2023-10-09T07:09:32;34.63;;;15.45;;
51854;SDS011;37895;53.240;6.572;2023-10-09T07:12:16;27.95;;;14.35;;
51854;SDS011;37895;53.240;6.572;2023-10-09T07:14:52;26.60;;;13.43;;
51854;SDS011;37895;53.240;6.572;2023-10-09T07:17:46;30.15;;;14.77;;
51854;SDS011;37895;53.240;6.572;2023-10-09T07:20:11;26.95;;;12.65;;
51854;SDS011;37895;53.240;6.572;2023-10-09T07:23:02;26.08;;;13.85;;
51854;SDS011;37895;53.240;6.572;2023-10-09T07:28:20;22.60;;;12.77;;
51854;SDS011;37895;53.240;6.572;2023-10-09T07:31:07;29.38;;;13.20;;
51854;SDS011;37895;53.240;6.572;2023-10-09T07:33:34;30.27;;;14.32;;
51854;SDS011;37895;53.240;6.572;2023-10-09T07:36:20;24.48;;;12.68;;
51854;SDS011;37895;53.240;6.572;2023-10-09T07:38:59;28.20;;;13.25;;
51854;SDS011;37895;53.240;6.572;2023-10-09T07:41:37;25.65;;;13.45;;
51854;SDS011;37895;53.240;6.572;2023-10-09T07:44:09;25.42;;;12.95;;
51854;SDS011;37895;53.240;6.572;2023-10-09T07:46:53;22.92;;;13.15;;
51854;SDS011;37895;53.240;6.572;2023-10-09T07:49:38;29.65;;;13.50;;
51854;SDS011;37895;53.240;6.572;2023-10-09T07:52:04;25.40;;;12.48;;
51854;SDS011;37895;53.240;6.572;2023-10-09T07:54:31;23.45;;;12.52;;
51854;SDS011;37895;53.240;6.572;2023-10-09T07:56:57;30.20;;;13.70;;
51854;SDS011;37895;53.240;6.572;2023-10-09T07:59:41;26.63;;;12.82;;
51854;SDS011;37895;53.240;6.572;2023-10-09T08:02:19;25.27;;;11.98;;
51854;SDS011;37895;53.240;6.572;2023-10-09T08:04:56;22.25;;;12.15;;
51854;SDS011;37895;53.240;6.572;2023-10-09T08:07:28;25.55;;;12.93;;
51854;SDS011;37895;53.240;6.572;2023-10-09T08:10:02;23.02;;;11.07;;
51854;SDS011;37895;53.240;6.572;2023-10-09T08:12:44;29.60;;;12.82;;
51854;SDS011;37895;53.240;6.572;2023-10-09T08:15:16;26.83;;;12.60;;
51854;SDS011;37895;53.240;6.572;2023-10-09T08:17:50;26.17;;;12.48;;
51854;SDS011;37895;53.240;6.572;2023-10-09T08:20:38;29.67;;;12.48;;
51854;SDS011;37895;53.240;6.572;2023-10-09T08:23:23;29.73;;;12.55;;
51854;SDS011;37895;53.240;6.572;2023-10-09T08:26:00;23.80;;;12.98;;
51854;SDS011;37895;53.240;6.572;2023-10-09T08:28:38;27.60;;;13.32;;
51854;SDS011;37895;53.240;6.572;2023-10-09T08:31:11;32.22;;;13.15;;
51854;SDS011;37895;53.240;6.572;2023-10-09T08:33:45;31.70;;;13.73;;
51854;SDS011;37895;53.240;6.572;2023-10-09T08:36:21;32.72;;;12.98;;
51854;SDS011;37895;53.240;6.572;2023-10-09T08:38:48;26.90;;;12.98;;
51854;SDS011;37895;53.240;6.572;2023-10-09T08:41:13;28.98;;;12.13;;
51854;SDS011;37895;53.240;6.572;2023-10-09T08:43:52;24.33;;;11.93;;
51854;SDS011;37895;53.240;6.572;2023-10-09T08:46:28;30.38;;;14.32;;
51854;SDS011;37895;53.240;6.572;2023-10-09T08:48:58;29.50;;;12.60;;
51854;SDS011;37895;53.240;6.572;2023-10-09T08:51:25;27.25;;;12.65;;
51854;SDS011;37895;53.240;6.572;2023-10-09T08:53:51;25.38;;;11.82;;
51854;SDS011;37895;53.240;6.572;2023-10-09T08:56:18;24.67;;;11.88;;
51854;SDS011;37895;53.240;6.572;2023-10-09T08:58:52;30.58;;;13.70;;
51854;SDS011;37895;53.240;6.572;2023-10-09T09:01:19;29.02;;;12.20;;
51854;SDS011;37895;53.240;6.572;2023-10-09T09:03:46;24.48;;;12.25;;
51854;SDS011;37895;53.240;6.572;2023-10-09T09:06:13;28.25;;;11.50;;
51854;SDS011;37895;53.240;6.572;2023-10-09T09:08:39;27.13;;;11.30;;
51854;SDS011;37895;53.240;6.572;2023-10-09T09:11:10;21.98;;;11.02;;
51854;SDS011;37895;53.240;6.572;2023-10-09T09:13:41;23.80;;;12.93;;
51854;SDS011;37895;53.240;6.572;2023-10-09T09:16:16;27.80;;;12.20;;
51854;SDS011;37895;53.240;6.572;2023-10-09T09:18:50;21.48;;;11.27;;
51854;SDS011;37895;53.240;6.572;2023-10-09T09:21:33;25.15;;;10.60;;
51854;SDS011;37895;53.240;6.572;2023-10-09T09:24:05;22.67;;;11.02;;
51854;SDS011;37895;53.240;6.572;2023-10-09T09:26:53;23.58;;;11.50;;
51854;SDS011;37895;53.240;6.572;2023-10-09T09:32:04;22.17;;;11.95;;
51854;SDS011;37895;53.240;6.572;2023-10-09T09:34:43;19.63;;;10.57;;
51854;SDS011;37895;53.240;6.572;2023-10-09T09:37:25;27.52;;;11.25;;
51854;SDS011;37895;53.240;6.572;2023-10-09T09:40:18;20.52;;;10.52;;
51854;SDS011;37895;53.240;6.572;2023-10-09T09:42:58;24.55;;;10.60;;
51854;SDS011;37895;53.240;6.572;2023-10-09T09:45:31;24.20;;;10.60;;
51854;SDS011;37895;53.240;6.572;2023-10-09T09:47:59;20.25;;;9.98;;
51854;SDS011;37895;53.240;6.572;2023-10-09T09:50:31;27.05;;;11.82;;
51854;SDS011;37895;53.240;6.572;2023-10-09T09:52:58;27.80;;;11.25;;
51854;SDS011;37895;53.240;6.572;2023-10-09T09:55:24;21.80;;;9.95;;
51854;SDS011;37895;53.240;6.572;2023-10-09T09:57:56;21.73;;;10.10;;
51854;SDS011;37895;53.240;6.572;2023-10-09T10:00:25;21.00;;;10.13;;
51854;SDS011;37895;53.240;6.572;2023-10-09T10:03:22;22.02;;;8.80;;
51854;SDS011;37895;53.240;6.572;2023-10-09T10:05:53;24.10;;;9.25;;
51854;SDS011;37895;53.240;6.572;2023-10-09T10:08:22;20.92;;;9.55;;
51854;SDS011;37895;53.240;6.572;2023-10-09T10:10:56;19.83;;;8.73;;
51854;SDS011;37895;53.240;6.572;2023-10-09T10:14:13;17.70;;;9.45;;
51854;SDS011;37895;53.240;6.572;2023-10-09T10:16:26;18.88;;;8.95;;
51854;SDS011;37895;53.240;6.572;2023-10-09T10:19:00;20.33;;;9.55;;
51854;SDS011;37895;53.240;6.572;2023-10-09T10:21:46;19.45;;;8.25;;
51854;SDS011;37895;53.240;6.572;2023-10-09T10:27:16;15.57;;;7.70;;
51854;SDS011;37895;53.240;6.572;2023-10-09T10:35:34;21.67;;;8.95;;
51854;SDS011;37895;53.240;6.572;2023-10-09T10:40:47;19.75;;;8.07;;
51854;SDS011;37895;53.240;6.572;2023-10-09T10:43:22;18.98;;;8.85;;
51854;SDS011;37895;53.240;6.572;2023-10-09T10:46:05;21.13;;;8.10;;
51854;SDS011;37895;53.240;6.572;2023-10-09T10:48:51;18.30;;;8.35;;
51854;SDS011;37895;53.240;6.572;2023-10-09T10:51:27;20.55;;;8.75;;
51854;SDS011;37895;53.240;6.572;2023-10-09T10:54:06;19.17;;;8.48;;
51854;SDS011;37895;53.240;6.572;2023-10-09T10:56:51;20.73;;;9.40;;
51854;SDS011;37895;53.240;6.572;2023-10-09T10:59:20;22.33;;;8.60;;
51854;SDS011;37895;53.240;6.572;2023-10-09T11:01:51;23.60;;;8.85;;
51854;SDS011;37895;53.240;6.572;2023-10-09T11:04:23;20.73;;;8.57;;
51854;SDS011;37895;53.240;6.572;2023-10-09T11:07:03;16.30;;;8.38;;
51854;SDS011;37895;53.240;6.572;2023-10-09T11:10:02;16.25;;;8.73;;
51854;SDS011;37895;53.240;6.572;2023-10-09T11:12:32;23.20;;;9.90;;
51854;SDS011;37895;53.240;6.572;2023-10-09T11:15:30;20.88;;;9.35;;
51854;SDS011;37895;53.240;6.572;2023-10-09T11:18:09;23.52;;;9.90;;
51854;SDS011;37895;53.240;6.572;2023-10-09T11:20:48;25.25;;;10.93;;
51854;SDS011;37895;53.240;6.572;2023-10-09T11:23:27;21.48;;;7.93;;
51854;SDS011;37895;53.240;6.572;2023-10-09T11:26:00;20.40;;;8.18;;
51854;SDS011;37895;53.240;6.572;2023-10-09T11:32:06;24.48;;;9.00;;
51854;SDS011;37895;53.240;6.572;2023-10-09T11:34:36;23.60;;;9.35;;
51854;SDS011;37895;53.240;6.572;2023-10-09T11:39:37;18.85;;;7.10;;
51854;SDS011;37895;53.240;6.572;2023-10-09T11:42:17;19.05;;;6.60;;
51854;SDS011;37895;53.240;6.572;2023-10-09T11:47:47;14.10;;;6.30;;
51854;SDS011;37895;53.240;6.572;2023-10-09T11:50:40;13.15;;;5.90;;
51854;SDS011;37895;53.240;6.572;2023-10-09T11:53:42;19.25;;;5.97;;
51854;SDS011;37895;53.240;6.572;2023-10-09T11:56:11;18.25;;;6.32;;
51854;SDS011;37895;53.240;6.572;2023-10-09T11:58:41;18.92;;;6.50;;
51854;SDS011;37895;53.240;6.572;2023-10-09T12:01:14;15.88;;;6.25;;
51854;SDS011;37895;53.240;6.572;2023-10-09T12:03:59;17.23;;;6.25;;
51854;SDS011;37895;53.240;6.572;2023-10-09T12:06:25;13.30;;;6.25;;
51854;SDS011;37895;53.240;6.572;2023-10-09T12:08:57;13.30;;;5.45;;
51854;SDS011;37895;53.240;6.572;2023-10-09T12:11:23;15.57;;;5.90;;
51854;SDS011;37895;53.240;6.572;2023-10-09T12:13:54;16.80;;;5.40;;
51854;SDS011;37895;53.240;6.572;2023-10-09T12:16:23;17.35;;;5.95;;
51854;SDS011;37895;53.240;6.572;2023-10-09T12:18:55;16.05;;;5.93;;
51854;SDS011;37895;53.240;6.572;2023-10-09T12:21:21;14.10;;;5.63;;
51854;SDS011;37895;53.240;6.572;2023-10-09T12:23:48;14.57;;;5.50;;
51854;SDS011;37895;53.240;6.572;2023-10-09T12:26:14;18.83;;;6.00;;
51854;SDS011;37895;53.240;6.572;2023-10-09T12:28:43;14.48;;;5.15;;
51854;SDS011;37895;53.240;6.572;2023-10-09T12:31:11;15.88;;;5.70;;
51854;SDS011;37895;53.240;6.572;2023-10-09T12:33:49;15.55;;;6.20;;
51854;SDS011;37895;53.240;6.572;2023-10-09T12:36:16;13.52;;;5.53;;
51854;SDS011;37895;53.240;6.572;2023-10-09T12:38:45;14.13;;;6.07;;
51854;SDS011;37895;53.240;6.572;2023-10-09T12:41:17;14.50;;;6.00;;
51854;SDS011;37895;53.240;6.572;2023-10-09T12:43:50;15.23;;;5.85;;
51854;SDS011;37895;53.240;6.572;2023-10-09T12:46:17;11.13;;;5.25;;
51854;SDS011;37895;53.240;6.572;2023-10-09T12:48:44;14.23;;;5.00;;
51854;SDS011;37895;53.240;6.572;2023-10-09T12:51:11;12.05;;;5.03;;
51854;SDS011;37895;53.240;6.572;2023-10-09T12:53:41;17.90;;;6.03;;
51854;SDS011;37895;53.240;6.572;2023-10-09T12:56:07;8.95;;;5.20;;
51854;SDS011;37895;53.240;6.572;2023-10-09T12:58:34;13.98;;;6.03;;
51854;SDS011;37895;53.240;6.572;2023-10-09T13:01:02;15.00;;;6.03;;
51854;SDS011;37895;53.240;6.572;2023-10-09T13:03:35;14.73;;;5.05;;
51854;SDS011;37895;53.240;6.572;2023-10-09T13:06:03;13.23;;;5.70;;
51854;SDS011;37895;53.240;6.572;2023-10-09T13:08:35;12.30;;;5.13;;
51854;SDS011;37895;53.240;6.572;2023-10-09T13:11:03;15.75;;;5.18;;
51854;SDS011;37895;53.240;6.572;2023-10-09T13:13:50;13.23;;;4.85;;
51854;SDS011;37895;53.240;6.572;2023-10-09T13:16:17;15.65;;;5.45;;
51854;SDS011;37895;53.240;6.572;2023-10-09T13:18:50;15.00;;;5.15;;
51854;SDS011;37895;53.240;6.572;2023-10-09T13:21:16;11.95;;;4.80;;
51854;SDS011;37895;53.240;6.572;2023-10-09T13:23:43;12.32;;;5.03;;
51854;SDS011;37895;53.240;6.572;2023-10-09T13:26:12;13.52;;;5.15;;
51854;SDS011;37895;53.240;6.572;2023-10-09T13:28:49;12.45;;;4.93;;
51854;SDS011;37895;53.240;6.572;2023-10-09T13:31:16;17.40;;;5.10;;
51854;SDS011;37895;53.240;6.572;2023-10-09T13:33:42;13.43;;;4.78;;
51854;SDS011;37895;53.240;6.572;2023-10-09T13:36:09;15.20;;;5.70;;
51854;SDS011;37895;53.240;6.572;2023-10-09T13:39:06;11.15;;;5.03;;
51854;SDS011;37895;53.240;6.572;2023-10-09T13:41:52;9.32;;;4.03;;
51854;SDS011;37895;53.240;6.572;2023-10-09T13:44:29;11.60;;;4.82;;
51854;SDS011;37895;53.240;6.572;2023-10-09T13:46:59;11.48;;;4.25;;
51854;SDS011;37895;53.240;6.572;2023-10-09T13:49:30;9.00;;;5.03;;
51854;SDS011;37895;53.240;6.572;2023-10-09T13:51:57;10.82;;;4.38;;
51854;SDS011;37895;53.240;6.572;2023-10-09T13:54:25;12.70;;;4.88;;
51854;SDS011;37895;53.240;6.572;2023-10-09T13:56:58;9.60;;;4.03;;
51854;SDS011;37895;53.240;6.572;2023-10-09T13:59:24;10.38;;;4.25;;
51854;SDS011;37895;53.240;6.572;2023-10-09T14:01:50;16.90;;;5.22;;
51854;SDS011;37895;53.240;6.572;2023-10-09T14:04:20;15.65;;;5.03;;
51854;SDS011;37895;53.240;6.572;2023-10-09T14:06:46;13.95;;;4.75;;
51854;SDS011;37895;53.240;6.572;2023-10-09T14:09:22;8.83;;;3.60;;
51854;SDS011;37895;53.240;6.572;2023-10-09T14:12:04;14.07;;;3.88;;
51854;SDS011;37895;53.240;6.572;2023-10-09T14:14:42;10.85;;;3.80;;
51854;SDS011;37895;53.240;6.572;2023-10-09T14:17:19;11.25;;;3.60;;
51854;SDS011;37895;53.240;6.572;2023-10-09T14:19:49;11.52;;;4.28;;
51854;SDS011;37895;53.240;6.572;2023-10-09T14:22:19;13.82;;;3.78;;
51854;SDS011;37895;53.240;6.572;2023-10-09T14:24:52;9.10;;;3.75;;
51854;SDS011;37895;53.240;6.572;2023-10-09T14:27:22;10.07;;;3.47;;
51854;SDS011;37895;53.240;6.572;2023-10-09T14:29:52;11.27;;;3.03;;
51854;SDS011;37895;53.240;6.572;2023-10-09T14:32:24;9.80;;;3.20;;
51854;SDS011;37895;53.240;6.572;2023-10-09T14:35:09;7.93;;;3.30;;
51854;SDS011;37895;53.240;6.572;2023-10-09T14:37:40;7.80;;;3.00;;
51854;SDS011;37895;53.240;6.572;2023-10-09T14:40:06;11.18;;;3.28;;
51854;SDS011;37895;53.240;6.572;2023-10-09T14:42:38;9.75;;;3.53;;
51854;SDS011;37895;53.240;6.572;2023-10-09T14:45:09;9.68;;;3.50;;
51854;SDS011;37895;53.240;6.572;2023-10-09T14:47:40;8.68;;;3.60;;
51854;SDS011;37895;53.240;6.572;2023-10-09T14:50:06;14.18;;;2.88;;
51854;SDS011;37895;53.240;6.572;2023-10-09T14:52:34;10.07;;;3.20;;
51854;SDS011;37895;53.240;6.572;2023-10-09T14:55:04;9.50;;;3.05;;
51854;SDS011;37895;53.240;6.572;2023-10-09T14:57:32;13.00;;;3.00;;
51854;SDS011;37895;53.240;6.572;2023-10-09T14:59:59;11.90;;;2.92;;
51854;SDS011;37895;53.240;6.572;2023-10-09T15:02:26;12.85;;;3.45;;
51854;SDS011;37895;53.240;6.572;2023-10-09T15:04:51;6.20;;;3.03;;
51854;SDS011;37895;53.240;6.572;2023-10-09T15:07:18;10.35;;;2.90;;
51854;SDS011;37895;53.240;6.572;2023-10-09T15:09:43;8.02;;;3.58;;
51854;SDS011;37895;53.240;6.572;2023-10-09T15:12:09;10.60;;;2.90;;
51854;SDS011;37895;53.240;6.572;2023-10-09T15:14:36;8.60;;;3.30;;
51854;SDS011;37895;53.240;6.572;2023-10-09T15:17:02;11.65;;;3.15;;
51854;SDS011;37895;53.240;6.572;2023-10-09T15:19:28;12.77;;;3.13;;
51854;SDS011;37895;53.240;6.572;2023-10-09T15:21:56;13.45;;;3.67;;
51854;SDS011;37895;53.240;6.572;2023-10-09T15:24:26;11.30;;;3.67;;
51854;SDS011;37895;53.240;6.572;2023-10-09T15:26:52;11.30;;;3.17;;
51854;SDS011;37895;53.240;6.572;2023-10-09T15:29:22;9.60;;;3.22;;
51854;SDS011;37895;53.240;6.572;2023-10-09T15:31:56;12.18;;;3.15;;
51854;SDS011;37895;53.240;6.572;2023-10-09T15:34:29;9.85;;;2.90;;
51854;SDS011;37895;53.240;6.572;2023-10-09T15:37:00;7.55;;;2.50;;
51854;SDS011;37895;53.240;6.572;2023-10-09T15:39:25;7.30;;;2.70;;
51854;SDS011;37895;53.240;6.572;2023-10-09T15:41:51;7.25;;;2.58;;
51854;SDS011;37895;53.240;6.572;2023-10-09T15:44:17;11.32;;;2.85;;
51854;SDS011;37895;53.240;6.572;2023-10-09T15:46:42;7.10;;;2.70;;
51854;SDS011;37895;53.240;6.572;2023-10-09T15:49:13;6.25;;;2.30;;
51854;SDS011;37895;53.240;6.572;2023-10-09T15:51:40;7.72;;;2.47;;
51854;SDS011;37895;53.240;6.572;2023-10-09T15:54:08;12.10;;;2.85;;
51854;SDS011;37895;53.240;6.572;2023-10-09T15:56:36;10.15;;;2.78;;
51854;SDS011;37895;53.240;6.572;2023-10-09T15:59:04;7.68;;;2.60;;
51854;SDS011;37895;53.240;6.572;2023-10-09T16:01:30;6.90;;;2.55;;